Time;durP1;ratioP1;P1;durP2;ratioP2;P2;SDS_P1;SDS_P2;PMS_P1;PMS_P2;Temp;Humidity;BMP_temperature;BMP_pressure;BME280_temperature;BME280_humidity;BME280_pressure;Samples;Min_cycle;Max_cycle;Signal;HPM_P1;HPM_P2
2022/10/21 00:00:18;;;;;;;37.47;25.02;;;13.10;99.90;;;;;;5034107;27;93191;-76
2022/10/21 00:02:45;;;;;;;32.97;23.75;;;13.10;99.90;;;;;;5032830;28;110238;-76
2022/10/21 00:05:13;;;;;;;32.08;23.40;;;13.10;99.90;;;;;;5033682;28;92420;-77
2022/10/21 00:07:40;;;;;;;33.92;23.00;;;13.00;99.90;;;;;;5017379;28;92553;-76
2022/10/21 00:10:08;;;;;;;44.05;23.88;;;13.00;99.90;;;;;;5033206;28;95779;-76
2022/10/21 00:12:36;;;;;;;32.13;22.58;;;13.00;99.90;;;;;;5034054;28;94179;-77
2022/10/21 00:15:08;;;;;;;37.13;23.05;;;13.00;99.90;;;;;;5033346;28;92425;-76
2022/10/21 00:17:37;;;;;;;34.78;22.10;;;13.00;99.90;;;;;;5033809;28;93165;-76
2022/10/21 00:20:06;;;;;;;31.90;21.33;;;13.00;99.90;;;;;;5033538;27;95203;-77
2022/10/21 00:22:33;;;;;;;35.33;21.20;;;13.00;99.90;;;;;;5034779;28;95362;-76
2022/10/21 00:25:00;;;;;;;34.83;21.92;;;13.00;99.90;;;;;;5035113;28;92407;-76
2022/10/21 00:27:27;;;;;;;30.08;20.63;;;13.00;99.90;;;;;;5033539;27;92468;-77
2022/10/21 00:29:54;;;;;;;30.85;22.48;;;13.00;99.90;;;;;;5033332;28;95749;-76
2022/10/21 00:32:21;;;;;;;31.83;21.60;;;13.00;99.90;;;;;;5033201;28;95826;-76
2022/10/21 00:34:48;;;;;;;35.13;21.48;;;13.00;99.90;;;;;;5033249;28;99354;-76
2022/10/21 00:37:16;;;;;;;30.83;21.23;;;13.00;99.90;;;;;;5035112;28;92590;-76
2022/10/21 00:39:44;;;;;;;33.60;21.45;;;13.00;99.90;;;;;;5034482;28;93281;-76
2022/10/21 00:42:18;;;;;;;33.65;21.00;;;13.00;99.90;;;;;;5033398;27;95246;-76
2022/10/21 00:45:04;;;;;;;33.20;22.27;;;13.00;99.90;;;;;;5033429;28;94727;-76
2022/10/21 00:47:44;;;;;;;30.15;21.42;;;13.10;99.90;;;;;;5037566;27;92475;-76
2022/10/21 00:50:31;;;;;;;31.88;21.17;;;13.00;99.90;;;;;;5036423;28;95918;-76
2022/10/21 00:53:00;;;;;;;35.17;22.17;;;13.00;99.90;;;;;;5036342;28;94419;-77
2022/10/21 00:55:32;;;;;;;33.53;21.77;;;13.00;99.90;;;;;;5036895;28;92830;-76
2022/10/21 00:58:01;;;;;;;29.50;20.55;;;13.00;99.90;;;;;;5036961;28;92422;-76
2022/10/21 01:00:28;;;;;;;35.70;20.20;;;13.00;99.90;;;;;;5036269;28;100715;-76
2022/10/21 01:02:55;;;;;;;29.38;20.50;;;13.00;99.90;;;;;;5036870;28;95416;-76
2022/10/21 01:05:23;;;;;;;33.85;20.42;;;13.00;99.90;;;;;;5036058;28;92479;-76
2022/10/21 01:07:50;;;;;;;30.45;19.98;;;13.00;99.90;;;;;;5038034;28;92332;-76
2022/10/21 01:10:18;;;;;;;28.38;20.13;;;13.00;99.90;;;;;;5036459;28;95529;-77
2022/10/21 01:12:57;;;;;;;32.83;22.13;;;13.00;99.90;;;;;;5036136;28;96752;-77
2022/10/21 01:15:32;;;;;;;29.55;20.40;;;13.00;99.90;;;;;;5037337;28;92343;-76
2022/10/21 01:18:23;;;;;;;31.50;19.80;;;13.00;99.90;;;;;;5037775;28;92442;-76
2022/10/21 01:21:27;;;;;;;30.13;19.65;;;13.00;99.90;;;;;;5037661;28;93127;-76
2022/10/21 01:24:23;;;;;;;28.58;19.88;;;13.00;99.90;;;;;;5036486;28;93001;-77
2022/10/21 01:26:56;;;;;;;29.42;20.35;;;13.00;99.90;;;;;;5037563;28;92470;-76
2022/10/21 01:29:43;;;;;;;34.83;22.13;;;12.90;99.90;;;;;;5036685;28;92141;-77
2022/10/21 01:32:19;;;;;;;33.20;21.23;;;13.00;99.90;;;;;;5035649;28;95996;-77
2022/10/21 01:34:56;;;;;;;32.95;19.27;;;12.90;99.90;;;;;;5035935;28;95757;-76
2022/10/21 01:37:39;;;;;;;28.90;19.70;;;12.90;99.90;;;;;;5035951;28;95649;-76
2022/10/21 01:40:15;;;;;;;29.37;20.73;;;13.00;99.90;;;;;;5053071;27;92445;-76
2022/10/21 01:42:55;;;;;;;29.30;18.58;;;13.00;99.90;;;;;;5037211;28;94728;-76
2022/10/21 01:45:48;;;;;;;28.00;18.70;;;13.10;99.90;;;;;;5035377;28;95311;-76
2022/10/21 01:48:30;;;;;;;35.90;20.83;;;13.10;99.90;;;;;;5037282;28;92812;-77
2022/10/21 01:51:01;;;;;;;26.90;19.65;;;13.20;99.90;;;;;;5036024;27;92558;-76
2022/10/21 01:53:33;;;;;;;30.60;20.08;;;13.20;99.90;;;;;;5035786;28;93236;-76
2022/10/21 01:56:03;;;;;;;32.85;20.70;;;13.20;99.90;;;;;;5036047;28;94284;-76
2022/10/21 01:58:33;;;;;;;29.13;19.88;;;13.30;99.90;;;;;;5017806;28;92532;-76
2022/10/21 02:01:02;;;;;;;30.85;22.40;;;13.30;99.90;;;;;;5037145;28;92347;-76
2022/10/21 02:03:33;;;;;;;32.95;18.92;;;13.30;99.90;;;;;;5033975;28;96928;-76
2022/10/21 02:06:01;;;;;;;28.23;19.17;;;13.40;99.90;;;;;;5052459;27;97927;-76
2022/10/21 02:08:28;;;;;;;30.85;19.73;;;13.40;99.90;;;;;;5036877;28;92438;-76
2022/10/21 02:11:00;;;;;;;24.98;19.42;;;13.40;99.90;;;;;;5035167;27;104174;-77
2022/10/21 02:13:34;;;;;;;26.05;18.35;;;13.40;99.90;;;;;;5036831;28;93234;-76
2022/10/21 02:16:05;;;;;;;26.92;19.35;;;13.50;99.90;;;;;;5035692;28;92937;-76
2022/10/21 02:18:32;;;;;;;30.63;18.58;;;13.50;99.90;;;;;;5052047;27;92471;-76
2022/10/21 02:21:05;;;;;;;26.20;19.08;;;13.50;99.90;;;;;;5036561;28;91920;-76
2022/10/21 02:24:05;;;;;;;24.77;18.07;;;13.60;99.90;;;;;;5035117;28;98745;-76
2022/10/21 02:26:33;;;;;;;21.95;15.77;;;13.60;99.90;;;;;;5031448;28;93330;-76
2022/10/21 02:29:00;;;;;;;21.08;16.75;;;13.60;99.90;;;;;;5035543;28;94811;-76
2022/10/21 02:31:38;;;;;;;22.73;17.75;;;13.70;99.90;;;;;;5036574;28;93007;-76
2022/10/21 02:34:29;;;;;;;22.27;16.80;;;13.80;99.90;;;;;;5035343;28;93274;-76
2022/10/21 02:37:18;;;;;;;27.77;18.05;;;13.80;99.90;;;;;;5018435;28;94215;-76
2022/10/21 02:40:14;;;;;;;23.58;17.38;;;13.90;99.90;;;;;;5026685;28;92517;-76
2022/10/21 02:42:51;;;;;;;28.13;17.17;;;13.90;99.90;;;;;;5012651;28;92399;-76
2022/10/21 02:45:20;;;;;;;22.88;16.95;;;14.00;99.90;;;;;;5034988;28;93297;-76
2022/10/21 02:47:48;;;;;;;24.98;17.60;;;14.00;99.90;;;;;;5036910;28;93233;-76
2022/10/21 02:50:16;;;;;;;38.13;20.63;;;14.00;99.90;;;;;;5035761;28;104550;-76
2022/10/21 02:52:43;;;;;;;31.35;18.55;;;14.00;99.90;;;;;;5052102;27;92680;-76
2022/10/21 02:55:11;;;;;;;28.83;20.02;;;14.00;99.90;;;;;;5033597;28;95845;-77
2022/10/21 02:57:38;;;;;;;28.38;18.98;;;14.00;99.90;;;;;;5035120;28;95492;-76
2022/10/21 03:00:06;;;;;;;31.55;19.60;;;14.00;99.90;;;;;;5035092;27;92359;-76
2022/10/21 03:02:33;;;;;;;30.35;19.90;;;14.00;99.90;;;;;;5036198;28;92414;-76
2022/10/21 03:05:00;;;;;;;28.65;19.27;;;14.00;99.90;;;;;;5034734;28;96078;-76
2022/10/21 03:07:27;;;;;;;32.08;20.05;;;14.00;99.90;;;;;;5035872;28;93168;-77
2022/10/21 03:09:54;;;;;;;31.50;20.13;;;14.10;99.90;;;;;;5035112;28;92721;-76
2022/10/21 03:12:21;;;;;;;33.38;20.88;;;14.00;99.90;;;;;;5034376;28;112392;-76
2022/10/21 03:14:48;;;;;;;31.50;20.50;;;14.10;99.90;;;;;;5017646;28;96027;-76
2022/10/21 03:17:14;;;;;;;43.85;21.83;;;14.10;99.90;;;;;;5034889;28;92878;-77
2022/10/21 03:19:41;;;;;;;34.05;20.33;;;14.10;99.90;;;;;;5033410;28;94897;-76
2022/10/21 03:22:08;;;;;;;44.15;22.15;;;14.10;99.90;;;;;;5035650;28;92457;-76
2022/10/21 03:24:35;;;;;;;34.45;21.30;;;14.10;99.90;;;;;;5018059;28;92409;-77
2022/10/21 03:27:02;;;;;;;31.75;19.65;;;14.10;99.90;;;;;;5034387;28;92407;-76
2022/10/21 03:29:29;;;;;;;30.98;19.55;;;14.20;99.90;;;;;;5035895;28;92481;-77
2022/10/21 03:31:56;;;;;;;34.50;20.77;;;14.10;99.90;;;;;;5034476;28;92605;-76
2022/10/21 03:34:23;;;;;;;31.70;19.88;;;14.10;99.90;;;;;;5035755;28;93280;-76
2022/10/21 03:36:50;;;;;;;35.28;20.33;;;14.10;99.90;;;;;;5036121;28;93125;-76
2022/10/21 03:39:17;;;;;;;30.55;19.33;;;14.20;99.90;;;;;;5017833;28;92419;-76
2022/10/21 03:41:44;;;;;;;29.55;19.77;;;14.20;99.90;;;;;;5017419;28;98807;-76
2022/10/21 03:44:11;;;;;;;30.88;19.67;;;14.20;99.90;;;;;;5033074;28;95638;-76
2022/10/21 03:46:38;;;;;;;30.08;19.65;;;14.20;99.90;;;;;;5033698;28;96506;-76
2022/10/21 03:49:05;;;;;;;30.20;19.88;;;14.20;99.90;;;;;;5034350;28;92440;-76
2022/10/21 03:51:35;;;;;;;40.78;24.38;;;14.20;99.90;;;;;;5034120;28;92437;-76
2022/10/21 03:54:02;;;;;;;33.55;23.02;;;14.10;99.90;;;;;;5034369;28;93353;-76
2022/10/21 03:56:29;;;;;;;32.83;25.73;;;14.10;99.90;;;;;;5035136;28;92948;-76
2022/10/21 03:58:56;;;;;;;47.03;41.92;;;14.10;99.90;;;;;;5035624;28;93019;-76
2022/10/21 04:01:25;;;;;;;34.70;27.60;;;14.10;99.90;;;;;;5035929;28;91781;-76
2022/10/21 04:03:52;;;;;;;46.45;36.55;;;14.10;99.90;;;;;;5033780;28;95779;-76
2022/10/21 04:06:19;;;;;;;39.58;28.15;;;14.10;99.90;;;;;;5033381;28;109959;-76
2022/10/21 04:08:46;;;;;;;42.05;26.23;;;14.10;99.90;;;;;;5033858;27;94898;-76
2022/10/21 04:11:13;;;;;;;38.92;23.38;;;14.10;99.90;;;;;;5034124;28;92371;-76
2022/10/21 04:13:40;;;;;;;48.40;38.35;;;14.10;99.90;;;;;;5035156;28;93368;-77
2022/10/21 04:16:11;;;;;;;48.33;34.88;;;14.10;99.90;;;;;;5051005;27;95910;-76
2022/10/21 04:18:38;;;;;;;33.25;22.38;;;14.00;99.90;;;;;;5035488;28;92366;-76
2022/10/21 04:21:05;;;;;;;33.88;21.73;;;14.00;99.90;;;;;;5034432;27;92565;-77
2022/10/21 04:23:32;;;;;;;38.15;23.23;;;13.90;99.90;;;;;;5038538;28;92533;-77
2022/10/21 04:25:59;;;;;;;44.42;23.60;;;13.90;99.90;;;;;;5039045;28;93078;-76
2022/10/21 04:28:26;;;;;;;40.63;22.08;;;13.80;99.90;;;;;;5038502;28;92353;-76
2022/10/21 04:30:53;;;;;;;37.50;21.52;;;13.80;99.90;;;;;;5037242;28;92598;-77
2022/10/21 04:33:20;;;;;;;42.40;22.60;;;13.80;99.90;;;;;;5035932;28;94895;-76
2022/10/21 04:35:47;;;;;;;39.22;22.83;;;13.80;99.90;;;;;;5036427;27;114275;-76
2022/10/21 04:38:14;;;;;;;50.97;24.77;;;13.80;99.90;;;;;;5037626;28;92591;-76
2022/10/21 04:40:41;;;;;;;47.22;24.70;;;13.80;99.90;;;;;;5038398;28;92349;-76
2022/10/21 04:43:08;;;;;;;53.17;25.77;;;13.70;99.90;;;;;;5037239;28;93605;-76
2022/10/21 04:45:38;;;;;;;51.80;24.90;;;13.70;99.90;;;;;;5038555;28;93212;-76
2022/10/21 04:48:06;;;;;;;53.30;25.52;;;13.70;99.90;;;;;;5038606;28;92327;-76
2022/10/21 04:50:34;;;;;;;40.38;22.15;;;13.60;99.90;;;;;;5038687;28;91772;-76
2022/10/21 04:53:00;;;;;;;53.97;24.40;;;13.60;99.90;;;;;;5037031;28;93295;-76
2022/10/21 04:55:27;;;;;;;45.42;23.20;;;13.60;99.90;;;;;;5036955;28;95636;-76
2022/10/21 04:57:54;;;;;;;40.17;20.67;;;13.60;99.90;;;;;;5035785;28;94959;-76
2022/10/21 05:00:21;;;;;;;51.80;23.83;;;13.60;99.90;;;;;;5036875;28;92458;-76
2022/10/21 05:02:48;;;;;;;44.85;22.65;;;13.50;99.90;;;;;;5036583;28;93260;-76
2022/10/21 05:05:15;;;;;;;45.97;23.75;;;13.50;99.90;;;;;;5037690;28;93075;-76
2022/10/21 05:07:42;;;;;;;46.47;24.02;;;13.60;99.90;;;;;;5036496;28;96270;-76
2022/10/21 05:10:09;;;;;;;47.35;23.98;;;13.60;99.90;;;;;;5038257;28;92381;-76
2022/10/21 05:12:36;;;;;;;51.60;24.67;;;13.50;99.90;;;;;;5036715;28;93257;-76
2022/10/21 05:15:03;;;;;;;48.65;26.27;;;13.50;99.90;;;;;;5037116;28;92938;-76
2022/10/21 05:17:30;;;;;;;44.63;23.90;;;13.50;99.90;;;;;;5037874;28;92575;-76
2022/10/21 05:19:57;;;;;;;57.95;30.00;;;13.40;99.90;;;;;;5038192;28;92416;-76
2022/10/21 05:22:24;;;;;;;49.25;34.25;;;13.40;99.90;;;;;;5036401;28;95692;-76
2022/10/21 05:24:51;;;;;;;45.97;24.45;;;13.40;99.90;;;;;;5037372;28;95473;-76
2022/10/21 05:27:17;;;;;;;49.47;27.02;;;13.30;99.90;;;;;;5036336;28;92545;-76
2022/10/21 05:29:44;;;;;;;42.92;24.85;;;13.30;99.90;;;;;;5036089;27;92479;-76
2022/10/21 05:32:11;;;;;;;44.10;26.23;;;13.30;99.90;;;;;;5018913;28;95680;-76
2022/10/21 05:34:38;;;;;;;41.30;23.05;;;13.20;99.90;;;;;;5036622;28;92897;-76
2022/10/21 05:37:05;;;;;;;32.55;20.52;;;13.20;99.90;;;;;;5019890;28;92465;-76
2022/10/21 05:39:32;;;;;;;35.83;20.25;;;13.20;99.90;;;;;;5036426;28;91742;-76
2022/10/21 05:41:59;;;;;;;37.65;22.08;;;13.20;99.90;;;;;;5037335;28;93335;-76
2022/10/21 05:44:26;;;;;;;48.75;24.33;;;13.20;99.90;;;;;;5037365;28;93001;-76
2022/10/21 05:46:53;;;;;;;38.70;24.83;;;13.10;99.90;;;;;;5034673;27;95103;-76
2022/10/21 05:49:20;;;;;;;40.28;20.75;;;13.10;99.90;;;;;;5038164;28;92432;-76
2022/10/21 05:51:47;;;;;;;33.40;19.88;;;13.10;99.90;;;;;;5018858;28;94294;-76
2022/10/21 05:54:14;;;;;;;34.95;19.48;;;13.10;99.90;;;;;;5035803;28;94095;-76
2022/10/21 05:56:41;;;;;;;41.20;20.23;;;13.20;99.90;;;;;;5037151;28;92522;-76
2022/10/21 05:59:09;;;;;;;43.13;22.92;;;13.10;99.90;;;;;;5019329;28;92527;-76
2022/10/21 06:01:36;;;;;;;41.90;22.40;;;13.20;99.90;;;;;;5035825;27;95719;-76
2022/10/21 06:04:03;;;;;;;32.80;20.70;;;13.20;99.90;;;;;;5019409;27;95783;-76
2022/10/21 06:06:30;;;;;;;34.03;19.88;;;13.20;99.90;;;;;;5037365;28;92461;-76
2022/10/21 06:08:57;;;;;;;35.63;20.73;;;13.20;99.90;;;;;;5036907;28;92429;-76
2022/10/21 06:11:24;;;;;;;36.22;20.23;;;13.20;99.90;;;;;;5017815;28;98156;-76
2022/10/21 06:13:51;;;;;;;35.65;20.45;;;13.20;99.90;;;;;;5035494;28;95458;-76
2022/10/21 06:16:18;;;;;;;121.28;89.40;;;13.20;99.90;;;;;;5035780;28;92508;-76
2022/10/21 06:18:45;;;;;;;39.20;29.45;;;13.20;99.90;;;;;;5036712;28;92443;-76
2022/10/21 06:21:12;;;;;;;41.17;31.60;;;13.20;99.90;;;;;;5034999;28;93365;-76
2022/10/21 06:23:39;;;;;;;37.85;25.20;;;13.20;99.90;;;;;;5035634;28;93102;-79
2022/10/21 06:26:10;;;;;;;38.42;24.70;;;13.20;99.90;;;;;;5035759;28;93517;-79
2022/10/21 06:28:39;;;;;;;48.22;30.10;;;13.20;99.90;;;;;;5036841;28;91958;-79
2022/10/21 06:31:07;;;;;;;49.20;29.05;;;13.20;99.90;;;;;;5035207;28;96033;-79
2022/10/21 06:33:34;;;;;;;59.30;29.30;;;13.20;99.90;;;;;;5018455;28;95637;-79
2022/10/21 06:36:01;;;;;;;46.30;26.17;;;13.20;99.90;;;;;;5033852;28;94917;-79
2022/10/21 06:38:31;;;;;;;44.85;26.67;;;13.20;99.90;;;;;;5035774;28;92459;-79
2022/10/21 06:41:03;;;;;;;40.78;24.35;;;13.20;99.90;;;;;;5035106;28;93469;-79
2022/10/21 06:43:32;;;;;;;40.90;25.05;;;13.20;99.90;;;;;;5036362;28;93139;-79
2022/10/21 06:46:06;;;;;;;39.60;26.65;;;13.20;99.90;;;;;;5051954;27;92428;-79
2022/10/21 06:48:33;;;;;;;39.25;20.35;;;13.20;99.90;;;;;;5036622;27;92349;-79
2022/10/21 06:51:07;;;;;;;33.28;20.67;;;13.20;99.90;;;;;;5036025;28;104857;-79
2022/10/21 06:53:35;;;;;;;33.30;21.63;;;13.30;99.90;;;;;;5035087;28;95649;-79
2022/10/21 06:56:09;;;;;;;41.58;21.85;;;13.30;99.90;;;;;;5035869;28;99422;-79
2022/10/21 06:58:38;;;;;;;39.85;21.63;;;13.40;99.90;;;;;;5036384;28;92505;-79
2022/10/21 07:01:07;;;;;;;31.45;19.02;;;13.40;99.90;;;;;;5050039;27;103655;-79
2022/10/21 07:03:38;;;;;;;37.65;21.30;;;13.50;99.90;;;;;;5018282;28;98121;-79
2022/10/21 07:06:05;;;;;;;35.67;21.35;;;13.50;99.90;;;;;;5017736;28;92425;-79
2022/10/21 07:08:33;;;;;;;37.55;20.90;;;13.50;99.90;;;;;;5036142;28;92464;-79
2022/10/21 07:11:13;;;;;;;33.97;20.15;;;13.60;99.90;;;;;;5035883;27;93782;-79
2022/10/21 07:13:40;;;;;;;32.72;20.23;;;13.60;99.90;;;;;;5034771;28;93063;-79
2022/10/21 07:16:20;;;;;;;32.55;18.35;;;13.70;99.90;;;;;;5035648;28;92355;-77
2022/10/21 07:18:47;;;;;;;32.78;19.60;;;13.80;99.90;;;;;;5035918;28;91704;-76
2022/10/21 07:21:17;;;;;;;29.90;18.50;;;13.90;99.90;;;;;;5035257;28;92517;-76
2022/10/21 07:23:45;;;;;;;30.83;17.98;;;14.00;99.90;;;;;;5017772;28;95348;-77
2022/10/21 07:26:12;;;;;;;27.73;18.10;;;14.10;99.90;;;;;;5034217;28;94863;-76
2022/10/21 07:28:40;;;;;;;30.05;17.67;;;14.20;99.90;;;;;;5034465;28;94337;-77
2022/10/21 07:31:07;;;;;;;30.48;18.83;;;14.30;99.90;;;;;;5035239;28;93133;-76
2022/10/21 07:33:35;;;;;;;25.67;18.23;;;14.30;99.90;;;;;;5035813;28;93619;-76
2022/10/21 07:36:09;;;;;;;31.27;19.05;;;14.40;99.90;;;;;;5035712;28;92704;-77
2022/10/21 07:38:37;;;;;;;25.85;17.88;;;14.50;99.90;;;;;;5034506;28;92914;-76
2022/10/21 07:41:04;;;;;;;26.00;16.83;;;14.50;99.90;;;;;;5035197;28;93437;-76
2022/10/21 07:43:32;;;;;;;31.52;20.95;;;14.60;99.90;;;;;;5034494;28;95655;-76
2022/10/21 07:45:59;;;;;;;26.50;21.05;;;14.70;99.90;;;;;;5034186;28;92515;-76
2022/10/21 07:48:27;;;;;;;26.95;23.63;;;14.80;99.90;;;;;;5035616;28;92480;-77
2022/10/21 07:51:00;;;;;;;29.42;22.35;;;14.80;99.90;;;;;;5032659;28;95741;-76
2022/10/21 07:53:27;;;;;;;28.27;19.67;;;14.90;99.90;;;;;;5035215;28;95505;-77
2022/10/21 07:56:06;;;;;;;27.55;24.60;;;14.90;99.90;;;;;;5015509;28;104944;-77
2022/10/21 07:58:34;;;;;;;25.33;18.40;;;15.10;99.90;;;;;;5033977;28;93186;-77
2022/10/21 08:01:03;;;;;;;24.98;22.33;;;15.00;99.90;;;;;;5034186;28;110412;-76
2022/10/21 08:03:30;;;;;;;26.85;20.38;;;15.00;99.90;;;;;;5034923;28;93242;-76
2022/10/21 08:05:57;;;;;;;26.08;19.30;;;15.00;99.90;;;;;;5033903;28;92370;-77
2022/10/21 08:08:24;;;;;;;21.08;17.05;;;15.10;99.90;;;;;;5034315;28;91658;-76
2022/10/21 08:10:53;;;;;;;25.02;17.40;;;15.20;99.90;;;;;;5033698;28;93226;-77
2022/10/21 08:13:20;;;;;;;20.77;15.23;;;15.30;99.90;;;;;;5034727;28;92617;-76
2022/10/21 08:15:49;;;;;;;20.05;16.05;;;15.40;99.90;;;;;;5032655;28;94888;-77
2022/10/21 08:18:16;;;;;;;23.33;16.05;;;15.50;99.90;;;;;;5034770;28;92473;-77
2022/10/21 08:20:45;;;;;;;20.05;15.40;;;15.60;99.90;;;;;;5033759;28;93259;-76
2022/10/21 08:23:15;;;;;;;22.35;16.30;;;15.70;99.90;;;;;;5034614;28;93194;-77
2022/10/21 08:25:47;;;;;;;19.30;15.80;;;15.80;99.90;;;;;;5033557;28;93148;-76
2022/10/21 08:28:15;;;;;;;23.23;15.10;;;16.00;99.90;;;;;;5050420;27;92326;-77
2022/10/21 08:30:43;;;;;;;18.10;15.40;;;16.10;99.90;;;;;;5034646;28;93096;-77
2022/10/21 08:33:11;;;;;;;16.13;14.32;;;16.10;99.90;;;;;;5033736;28;93204;-77
2022/10/21 08:35:39;;;;;;;19.45;14.32;;;16.20;99.90;;;;;;5033111;28;98625;-77
2022/10/21 08:38:06;;;;;;;19.42;15.98;;;16.30;99.90;;;;;;5034376;28;92442;-76
2022/10/21 08:40:45;;;;;;;103.63;67.95;;;16.40;99.90;;;;;;5049037;27;98208;-77
2022/10/21 08:43:25;;;;;;;116.85;79.05;;;16.50;99.90;;;;;;5016095;28;98251;-76
2022/10/21 08:46:06;;;;;;;20.63;15.15;;;16.50;99.90;;;;;;5034994;28;92441;-77
2022/10/21 08:48:45;;;;;;;21.60;15.65;;;16.50;99.90;;;;;;5050072;27;92511;-76
2022/10/21 08:51:39;;;;;;;20.90;15.38;;;16.50;99.90;;;;;;5033256;28;93252;-77
2022/10/21 08:54:19;;;;;;;18.42;14.75;;;16.60;99.90;;;;;;5033024;27;95631;-76
2022/10/21 08:56:49;;;;;;;18.85;16.02;;;16.70;99.90;;;;;;5034474;28;92462;-80
2022/10/21 08:59:24;;;;;;;16.85;14.05;;;16.70;99.90;;;;;;5034742;28;92159;-77
2022/10/21 09:02:15;;;;;;;21.27;17.60;;;16.80;99.90;;;;;;5033218;28;93264;-77
2022/10/21 09:05:00;;;;;;;17.25;14.88;;;16.90;99.90;;;;;;5049877;27;95811;-77
2022/10/21 09:07:39;;;;;;;22.08;15.38;;;17.00;99.90;;;;;;5034190;27;94839;-77
2022/10/21 09:10:24;;;;;;;19.75;14.43;;;17.10;99.90;;;;;;5036219;28;92476;-77
2022/10/21 09:13:09;;;;;;;19.15;14.68;;;17.20;99.90;;;;;;5053268;27;95821;-77
2022/10/21 09:16:23;;;;;;;18.52;13.63;;;17.30;99.90;;;;;;5037941;28;92986;-77
2022/10/21 09:19:21;;;;;;;16.60;13.27;;;17.50;99.90;;;;;;5035422;28;92506;-77
2022/10/21 09:22:02;;;;;;;16.48;13.20;;;17.50;99.90;;;;;;5036094;28;92918;-77
2022/10/21 09:24:55;;;;;;;21.80;14.63;;;17.60;99.90;;;;;;5037609;28;93182;-78
2022/10/21 09:27:22;;;;;;;16.15;13.23;;;17.50;99.90;;;;;;5053570;27;93115;-77
2022/10/21 09:30:04;;;;;;;16.60;13.00;;;17.60;99.90;;;;;;5036424;28;92553;-77
2022/10/21 09:32:38;;;;;;;16.27;12.38;;;17.70;99.90;;;;;;5037770;28;92474;-77
2022/10/21 09:35:15;;;;;;;18.33;12.52;;;17.70;99.90;;;;;;5036018;28;95534;-77
2022/10/21 09:38:24;;;;;;;16.98;11.85;;;17.80;99.90;;;;;;5037504;28;95426;-77
2022/10/21 09:40:58;;;;;;;14.45;11.60;;;17.90;99.90;;;;;;5037606;28;92413;-77
2022/10/21 09:43:26;;;;;;;15.25;12.77;;;18.00;99.90;;;;;;5035846;28;92411;-77
2022/10/21 09:45:53;;;;;;;15.65;12.07;;;18.20;99.90;;;;;;5037099;28;93295;-77
2022/10/21 09:48:27;;;;;;;16.58;13.35;;;18.30;99.90;;;;;;5018903;28;95476;-77
2022/10/21 09:51:16;;;;;;;12.80;11.32;;;18.50;99.90;;;;;;5052997;27;92531;-77
2022/10/21 09:53:56;;;;;;;15.40;12.50;;;18.70;99.90;;;;;;5036666;28;92198;-77
2022/10/21 09:56:34;;;;;;;13.85;12.05;;;18.80;99.90;;;;;;5037048;28;93347;-77
2022/10/21 09:59:21;;;;;;;13.57;12.13;;;18.80;99.90;;;;;;5037383;27;93133;-77
2022/10/21 10:01:48;;;;;;;12.55;10.70;;;18.90;99.90;;;;;;5034480;28;94853;-78
2022/10/21 10:04:21;;;;;;;15.23;11.27;;;18.90;99.90;;;;;;5035666;28;92497;-77
2022/10/21 10:06:49;;;;;;;13.18;11.80;;;19.00;99.90;;;;;;5037068;28;93275;-77
2022/10/21 10:09:27;;;;;;;14.20;12.35;;;19.00;99.90;;;;;;5035102;28;95761;-77
2022/10/21 10:12:11;;;;;;;14.52;11.10;;;19.00;99.90;;;;;;5035267;28;95030;-77
2022/10/21 10:14:43;;;;;;;13.90;11.02;;;19.00;99.90;;;;;;5037190;28;92343;-77
2022/10/21 10:17:30;;;;;;;13.15;10.23;;;19.00;99.90;;;;;;5035793;28;92669;-77
2022/10/21 10:20:03;;;;;;;11.95;10.43;;;19.00;99.90;;;;;;5036413;27;93087;-77
2022/10/21 10:22:36;;;;;;;14.43;10.02;;;19.00;99.90;;;;;;5034960;28;92529;-77
2022/10/21 10:25:22;;;;;;;12.40;10.50;;;18.90;99.90;;;;;;5035439;28;92448;-77
2022/10/21 10:28:03;;;;;;;13.63;11.15;;;18.90;99.90;;;;;;5035327;28;95527;-77
2022/10/21 10:30:37;;;;;;;11.40;10.25;;;18.90;99.90;;;;;;5036345;28;94308;-77
2022/10/21 10:33:17;;;;;;;13.27;11.73;;;19.00;99.90;;;;;;5036449;28;92438;-77
2022/10/21 10:35:59;;;;;;;12.15;10.20;;;19.00;99.90;;;;;;5052122;27;92428;-77
2022/10/21 10:38:29;;;;;;;13.25;10.45;;;19.10;99.90;;;;;;5036783;28;93249;-77
2022/10/21 10:41:28;;;;;;;13.48;10.32;;;19.00;99.90;;;;;;5034847;28;95512;-77
2022/10/21 10:43:56;;;;;;;12.70;10.20;;;19.20;99.90;;;;;;5036208;27;92471;-77
2022/10/21 10:46:31;;;;;;;10.65;9.25;;;19.10;99.90;;;;;;5036602;28;91594;-77
2022/10/21 10:49:22;;;;;;;9.73;8.80;;;19.20;99.90;;;;;;5035338;28;95946;-77
2022/10/21 10:52:10;;;;;;;13.93;9.30;;;19.40;99.90;;;;;;5036773;28;94256;-77
2022/10/21 10:54:39;;;;;;;10.82;8.57;;;19.50;99.90;;;;;;5033865;28;94868;-77
2022/10/21 10:57:09;;;;;;;10.85;9.32;;;19.50;99.90;;;;;;5036596;27;92452;-77
2022/10/21 10:59:41;;;;;;;11.07;9.20;;;19.50;99.90;;;;;;5036647;27;93210;-77
2022/10/21 11:02:08;;;;;;;10.77;8.95;;;19.70;99.90;;;;;;5036517;27;92458;-77
2022/10/21 11:04:40;;;;;;;11.60;9.23;;;19.70;99.90;;;;;;5035518;28;92469;-77
2022/10/21 11:07:20;;;;;;;11.77;9.52;;;19.80;99.90;;;;;;5036971;28;92337;-77
2022/10/21 11:09:51;;;;;;;11.38;9.23;;;19.90;99.90;;;;;;5036446;28;93191;-77
2022/10/21 11:12:25;;;;;;;11.27;9.18;;;19.90;99.90;;;;;;5035448;27;95637;-77
2022/10/21 11:15:01;;;;;;;11.98;9.55;;;20.00;99.90;;;;;;5035161;28;92462;-77
2022/10/21 11:17:36;;;;;;;10.75;9.43;;;20.10;99.90;;;;;;5035443;28;92513;-77
2022/10/21 11:20:19;;;;;;;12.23;10.02;;;20.10;99.90;;;;;;5035253;28;95643;-77
2022/10/21 11:23:17;;;;;;;12.38;9.25;;;20.20;99.90;;;;;;5049139;27;98110;-77
2022/10/21 11:25:54;;;;;;;12.15;9.15;;;20.30;99.90;;;;;;5036171;28;92435;-77
2022/10/21 11:28:53;;;;;;;12.23;9.60;;;20.20;99.90;;;;;;5036221;27;92495;-77
2022/10/21 11:31:35;;;;;;;14.45;9.02;;;20.20;99.90;;;;;;5029982;28;94309;-77
2022/10/21 11:34:25;;;;;;;12.30;9.73;;;20.20;99.90;;;;;;5035392;28;93013;-77
2022/10/21 11:37:16;;;;;;;11.27;9.85;;;20.20;99.90;;;;;;5036518;27;92315;-77
2022/10/21 11:40:14;;;;;;;12.38;9.73;;;20.30;99.90;;;;;;5036348;28;91603;-77
2022/10/21 11:42:49;;;;;;;14.30;10.20;;;20.30;99.90;;;;;;5035825;27;93135;-77
2022/10/21 11:45:48;;;;;;;11.77;9.93;;;20.30;99.90;;;;;;5035714;28;93175;-77
2022/10/21 11:48:20;;;;;;;14.32;11.30;;;20.40;99.90;;;;;;5033662;27;94905;-77
2022/10/21 11:51:04;;;;;;;20.17;12.90;;;20.40;99.90;;;;;;5035283;28;92322;-77
2022/10/21 11:54:00;;;;;;;38.95;25.77;;;20.50;99.90;;;;;;5035089;28;93281;-77
2022/10/21 11:56:38;;;;;;;15.68;11.90;;;20.40;99.90;;;;;;5034959;28;93171;-77
2022/10/21 11:59:22;;;;;;;14.32;9.98;;;20.40;99.90;;;;;;5017025;28;92587;-77
2022/10/21 12:02:10;;;;;;;12.70;11.40;;;20.40;99.90;;;;;;5035367;27;92420;-77
2022/10/21 12:04:49;;;;;;;12.40;10.27;;;20.40;99.90;;;;;;5035235;28;93375;-77
2022/10/21 12:07:46;;;;;;;14.82;11.68;;;20.40;99.90;;;;;;5034342;28;95837;-77
2022/10/21 12:10:34;;;;;;;12.95;9.55;;;20.40;99.90;;;;;;5034894;28;92460;-77
2022/10/21 12:13:18;;;;;;;11.88;9.48;;;20.40;99.90;;;;;;5035745;27;92424;-77
2022/10/21 12:16:03;;;;;;;13.93;9.27;;;20.30;99.90;;;;;;5032997;28;95436;-77
2022/10/21 12:18:31;;;;;;;10.63;9.57;;;20.30;99.90;;;;;;5050651;27;98251;-77
2022/10/21 12:20:59;;;;;;;11.80;8.35;;;20.30;99.90;;;;;;5034647;28;92571;-77
2022/10/21 12:23:29;;;;;;;12.05;10.10;;;20.40;99.90;;;;;;5035072;27;92460;-77
2022/10/21 12:26:17;;;;;;;12.35;9.23;;;20.30;99.90;;;;;;5034775;28;93173;-77
2022/10/21 12:28:44;;;;;;;11.27;8.90;;;20.40;99.90;;;;;;5033977;28;95555;-77
2022/10/21 12:31:30;;;;;;;11.90;9.10;;;20.40;99.90;;;;;;5034134;28;92939;-77
2022/10/21 12:33:58;;;;;;;13.23;9.10;;;20.40;99.90;;;;;;5017702;28;91962;-77
2022/10/21 12:36:49;;;;;;;11.18;8.18;;;20.30;99.90;;;;;;5017101;28;95792;-77
2022/10/21 12:39:46;;;;;;;11.10;9.02;;;20.30;99.90;;;;;;5035158;27;93891;-77
2022/10/21 12:42:18;;;;;;;13.68;9.35;;;20.30;99.90;;;;;;5035141;27;94852;-77
2022/10/21 12:44:47;;;;;;;9.00;7.82;;;20.20;99.90;;;;;;5038851;27;92788;-77
2022/10/21 12:47:42;;;;;;;12.77;8.75;;;20.30;99.90;;;;;;5038676;28;93174;-77
2022/10/21 12:50:30;;;;;;;9.98;8.98;;;20.40;99.90;;;;;;5020390;28;95545;-77
2022/10/21 12:53:28;;;;;;;11.20;8.57;;;20.40;99.90;;;;;;5038576;28;92828;-77
2022/10/21 12:55:59;;;;;;;11.82;8.15;;;20.40;99.90;;;;;;5038909;28;93049;-77
2022/10/21 12:58:42;;;;;;;11.85;8.93;;;20.40;99.90;;;;;;5037190;28;95738;-77